sensor_id;sensor_type;location;lat;lon;timestamp;P1;durP1;ratioP1;P2;durP2;ratioP2
78169;SDS011;67412;49.892;14.490;2024-02-15T00:01:26;5.68;;;2.60;;
78169;SDS011;67412;49.892;14.490;2024-02-15T00:03:51;7.22;;;2.35;;
78169;SDS011;67412;49.892;14.490;2024-02-15T00:06:16;6.35;;;2.25;;
78169;SDS011;67412;49.892;14.490;2024-02-15T00:08:41;9.55;;;2.28;;
78169;SDS011;67412;49.892;14.490;2024-02-15T00:11:07;6.90;;;2.42;;
78169;SDS011;67412;49.892;14.490;2024-02-15T00:16:00;5.78;;;2.00;;
78169;SDS011;67412;49.892;14.490;2024-02-15T00:18:26;8.20;;;2.53;;
78169;SDS011;67412;49.892;14.490;2024-02-15T00:20:52;5.95;;;2.30;;
78169;SDS011;67412;49.892;14.490;2024-02-15T00:23:17;8.18;;;2.80;;
78169;SDS011;67412;49.892;14.490;2024-02-15T00:25:42;7.78;;;2.58;;
78169;SDS011;67412;49.892;14.490;2024-02-15T00:28:09;6.45;;;2.35;;
78169;SDS011;67412;49.892;14.490;2024-02-15T00:30:36;7.82;;;2.65;;
78169;SDS011;67412;49.892;14.490;2024-02-15T00:33:02;7.65;;;2.58;;
78169;SDS011;67412;49.892;14.490;2024-02-15T00:35:28;7.65;;;2.47;;
78169;SDS011;67412;49.892;14.490;2024-02-15T00:37:53;8.45;;;2.50;;
78169;SDS011;67412;49.892;14.490;2024-02-15T00:40:18;7.03;;;2.50;;
78169;SDS011;67412;49.892;14.490;2024-02-15T00:42:44;6.30;;;2.42;;
78169;SDS011;67412;49.892;14.490;2024-02-15T00:45:10;10.05;;;2.53;;
78169;SDS011;67412;49.892;14.490;2024-02-15T00:47:36;7.80;;;2.28;;
78169;SDS011;67412;49.892;14.490;2024-02-15T00:50:03;6.80;;;2.42;;
78169;SDS011;67412;49.892;14.490;2024-02-15T00:52:29;6.63;;;2.28;;
78169;SDS011;67412;49.892;14.490;2024-02-15T00:54:55;7.13;;;2.50;;
78169;SDS011;67412;49.892;14.490;2024-02-15T00:57:21;7.38;;;2.47;;
78169;SDS011;67412;49.892;14.490;2024-02-15T00:59:46;6.65;;;2.40;;
78169;SDS011;67412;49.892;14.490;2024-02-15T01:02:12;6.95;;;2.35;;
78169;SDS011;67412;49.892;14.490;2024-02-15T01:04:38;8.55;;;2.83;;
78169;SDS011;67412;49.892;14.490;2024-02-15T01:07:04;6.53;;;2.55;;
78169;SDS011;67412;49.892;14.490;2024-02-15T01:09:29;8.23;;;2.40;;
78169;SDS011;67412;49.892;14.490;2024-02-15T01:11:55;6.88;;;2.45;;
78169;SDS011;67412;49.892;14.490;2024-02-15T01:14:20;8.13;;;2.50;;
78169;SDS011;67412;49.892;14.490;2024-02-15T01:16:45;10.15;;;2.60;;
78169;SDS011;67412;49.892;14.490;2024-02-15T01:19:11;6.50;;;2.50;;
78169;SDS011;67412;49.892;14.490;2024-02-15T01:21:37;6.32;;;2.25;;
78169;SDS011;67412;49.892;14.490;2024-02-15T01:24:03;7.07;;;2.35;;
78169;SDS011;67412;49.892;14.490;2024-02-15T01:26:31;8.90;;;2.95;;
78169;SDS011;67412;49.892;14.490;2024-02-15T01:28:57;7.65;;;2.50;;
78169;SDS011;67412;49.892;14.490;2024-02-15T01:31:22;7.50;;;2.35;;
78169;SDS011;67412;49.892;14.490;2024-02-15T01:33:47;7.93;;;2.65;;
78169;SDS011;67412;49.892;14.490;2024-02-15T01:36:17;8.80;;;2.88;;
78169;SDS011;67412;49.892;14.490;2024-02-15T01:38:43;7.43;;;2.33;;
78169;SDS011;67412;49.892;14.490;2024-02-15T01:41:09;5.43;;;2.17;;
78169;SDS011;67412;49.892;14.490;2024-02-15T01:43:35;9.23;;;2.97;;
78169;SDS011;67412;49.892;14.490;2024-02-15T01:46:01;8.50;;;2.60;;
78169;SDS011;67412;49.892;14.490;2024-02-15T01:48:32;6.43;;;2.67;;
78169;SDS011;67412;49.892;14.490;2024-02-15T01:50:57;8.80;;;2.85;;
78169;SDS011;67412;49.892;14.490;2024-02-15T01:53:23;9.70;;;2.75;;
78169;SDS011;67412;49.892;14.490;2024-02-15T01:55:51;8.70;;;3.33;;
78169;SDS011;67412;49.892;14.490;2024-02-15T01:58:18;8.32;;;3.03;;
78169;SDS011;67412;49.892;14.490;2024-02-15T02:00:46;8.30;;;2.95;;
78169;SDS011;67412;49.892;14.490;2024-02-15T02:03:13;7.30;;;2.67;;
78169;SDS011;67412;49.892;14.490;2024-02-15T02:05:40;9.75;;;3.20;;
78169;SDS011;67412;49.892;14.490;2024-02-15T02:08:06;7.13;;;2.90;;
78169;SDS011;67412;49.892;14.490;2024-02-15T02:10:34;6.68;;;2.42;;
78169;SDS011;67412;49.892;14.490;2024-02-15T02:13:01;7.68;;;2.80;;
78169;SDS011;67412;49.892;14.490;2024-02-15T02:15:27;6.55;;;2.28;;
78169;SDS011;67412;49.892;14.490;2024-02-15T02:17:53;8.02;;;2.80;;
78169;SDS011;67412;49.892;14.490;2024-02-15T02:20:19;6.18;;;2.22;;
78169;SDS011;67412;49.892;14.490;2024-02-15T02:22:48;8.82;;;3.08;;
78169;SDS011;67412;49.892;14.490;2024-02-15T02:25:15;7.20;;;2.72;;
78169;SDS011;67412;49.892;14.490;2024-02-15T02:27:41;8.23;;;2.42;;
78169;SDS011;67412;49.892;14.490;2024-02-15T02:30:15;7.18;;;2.60;;
78169;SDS011;67412;49.892;14.490;2024-02-15T02:32:43;7.78;;;2.70;;
78169;SDS011;67412;49.892;14.490;2024-02-15T02:35:10;7.13;;;2.50;;
78169;SDS011;67412;49.892;14.490;2024-02-15T02:37:40;7.32;;;2.70;;
78169;SDS011;67412;49.892;14.490;2024-02-15T02:40:06;7.63;;;2.60;;
78169;SDS011;67412;49.892;14.490;2024-02-15T02:44:59;7.75;;;2.30;;
78169;SDS011;67412;49.892;14.490;2024-02-15T02:47:24;7.95;;;2.60;;
78169;SDS011;67412;49.892;14.490;2024-02-15T02:49:50;8.38;;;2.50;;
78169;SDS011;67412;49.892;14.490;2024-02-15T02:52:15;6.00;;;2.30;;
78169;SDS011;67412;49.892;14.490;2024-02-15T02:54:40;6.22;;;2.38;;
78169;SDS011;67412;49.892;14.490;2024-02-15T02:57:06;5.47;;;2.40;;
78169;SDS011;67412;49.892;14.490;2024-02-15T02:59:33;5.57;;;2.40;;
78169;SDS011;67412;49.892;14.490;2024-02-15T03:02:00;7.45;;;2.60;;
78169;SDS011;67412;49.892;14.490;2024-02-15T03:04:25;8.57;;;2.67;;
78169;SDS011;67412;49.892;14.490;2024-02-15T03:06:51;6.38;;;2.38;;
78169;SDS011;67412;49.892;14.490;2024-02-15T03:09:18;7.88;;;2.45;;
78169;SDS011;67412;49.892;14.490;2024-02-15T03:11:45;7.85;;;2.92;;
78169;SDS011;67412;49.892;14.490;2024-02-15T03:14:11;8.77;;;3.10;;
78169;SDS011;67412;49.892;14.490;2024-02-15T03:16:37;5.60;;;2.45;;
78169;SDS011;67412;49.892;14.490;2024-02-15T03:19:03;7.05;;;2.50;;
78169;SDS011;67412;49.892;14.490;2024-02-15T03:21:29;6.65;;;2.50;;
78169;SDS011;67412;49.892;14.490;2024-02-15T03:23:54;6.88;;;2.53;;
78169;SDS011;67412;49.892;14.490;2024-02-15T03:26:30;7.97;;;2.90;;
78169;SDS011;67412;49.892;14.490;2024-02-15T03:29:03;6.40;;;2.40;;
78169;SDS011;67412;49.892;14.490;2024-02-15T03:31:29;7.45;;;3.33;;
78169;SDS011;67412;49.892;14.490;2024-02-15T03:33:56;7.78;;;3.28;;
78169;SDS011;67412;49.892;14.490;2024-02-15T03:36:22;7.53;;;2.90;;
78169;SDS011;67412;49.892;14.490;2024-02-15T03:38:48;6.57;;;2.95;;
78169;SDS011;67412;49.892;14.490;2024-02-15T03:41:13;7.25;;;2.97;;
78169;SDS011;67412;49.892;14.490;2024-02-15T03:43:39;8.70;;;2.92;;
78169;SDS011;67412;49.892;14.490;2024-02-15T03:46:05;8.73;;;2.95;;
78169;SDS011;67412;49.892;14.490;2024-02-15T03:48:32;8.48;;;3.00;;
78169;SDS011;67412;49.892;14.490;2024-02-15T03:50:57;6.32;;;2.92;;
78169;SDS011;67412;49.892;14.490;2024-02-15T03:53:23;6.95;;;2.90;;
78169;SDS011;67412;49.892;14.490;2024-02-15T03:55:49;8.32;;;2.50;;
78169;SDS011;67412;49.892;14.490;2024-02-15T03:58:18;9.10;;;3.33;;
78169;SDS011;67412;49.892;14.490;2024-02-15T04:00:44;9.85;;;2.90;;
78169;SDS011;67412;49.892;14.490;2024-02-15T04:03:10;7.30;;;3.03;;
78169;SDS011;67412;49.892;14.490;2024-02-15T04:05:35;7.80;;;3.10;;
78169;SDS011;67412;49.892;14.490;2024-02-15T04:08:01;8.35;;;3.20;;
78169;SDS011;67412;49.892;14.490;2024-02-15T04:10:27;7.13;;;3.28;;
78169;SDS011;67412;49.892;14.490;2024-02-15T04:12:52;8.80;;;2.67;;
78169;SDS011;67412;49.892;14.490;2024-02-15T04:15:18;6.65;;;2.75;;
78169;SDS011;67412;49.892;14.490;2024-02-15T04:17:44;7.90;;;2.90;;
78169;SDS011;67412;49.892;14.490;2024-02-15T04:20:10;9.57;;;3.25;;
78169;SDS011;67412;49.892;14.490;2024-02-15T04:22:36;6.28;;;2.97;;
78169;SDS011;67412;49.892;14.490;2024-02-15T04:25:06;7.45;;;2.92;;
78169;SDS011;67412;49.892;14.490;2024-02-15T04:27:34;7.13;;;2.90;;
78169;SDS011;67412;49.892;14.490;2024-02-15T04:30:00;6.30;;;2.60;;
78169;SDS011;67412;49.892;14.490;2024-02-15T04:32:27;7.38;;;3.08;;
78169;SDS011;67412;49.892;14.490;2024-02-15T04:34:53;8.02;;;2.75;;
78169;SDS011;67412;49.892;14.490;2024-02-15T04:37:19;9.35;;;3.38;;
78169;SDS011;67412;49.892;14.490;2024-02-15T04:39:45;8.10;;;3.22;;
78169;SDS011;67412;49.892;14.490;2024-02-15T04:42:12;8.13;;;2.78;;
78169;SDS011;67412;49.892;14.490;2024-02-15T04:44:40;10.30;;;3.50;;
78169;SDS011;67412;49.892;14.490;2024-02-15T04:47:05;7.55;;;2.80;;
78169;SDS011;67412;49.892;14.490;2024-02-15T04:49:34;7.88;;;2.92;;
78169;SDS011;67412;49.892;14.490;2024-02-15T04:52:03;8.20;;;2.92;;
78169;SDS011;67412;49.892;14.490;2024-02-15T04:54:29;8.32;;;3.10;;
78169;SDS011;67412;49.892;14.490;2024-02-15T04:56:54;6.18;;;2.63;;
78169;SDS011;67412;49.892;14.490;2024-02-15T04:59:21;7.65;;;3.28;;
78169;SDS011;67412;49.892;14.490;2024-02-15T05:01:50;8.02;;;3.20;;
78169;SDS011;67412;49.892;14.490;2024-02-15T05:04:17;7.03;;;3.08;;
78169;SDS011;67412;49.892;14.490;2024-02-15T05:06:43;9.70;;;3.13;;
78169;SDS011;67412;49.892;14.490;2024-02-15T05:09:09;5.88;;;2.35;;
78169;SDS011;67412;49.892;14.490;2024-02-15T05:11:38;8.35;;;3.08;;
78169;SDS011;67412;49.892;14.490;2024-02-15T05:14:06;7.18;;;2.63;;
78169;SDS011;67412;49.892;14.490;2024-02-15T05:16:35;6.80;;;2.92;;
78169;SDS011;67412;49.892;14.490;2024-02-15T05:19:06;7.10;;;3.03;;
78169;SDS011;67412;49.892;14.490;2024-02-15T05:21:32;7.40;;;2.90;;
78169;SDS011;67412;49.892;14.490;2024-02-15T05:23:58;7.13;;;2.92;;
78169;SDS011;67412;49.892;14.490;2024-02-15T05:26:24;7.00;;;2.70;;
78169;SDS011;67412;49.892;14.490;2024-02-15T05:28:50;6.60;;;2.85;;
78169;SDS011;67412;49.892;14.490;2024-02-15T05:31:17;6.88;;;2.67;;
78169;SDS011;67412;49.892;14.490;2024-02-15T05:33:45;8.13;;;3.05;;
78169;SDS011;67412;49.892;14.490;2024-02-15T05:36:15;8.27;;;3.00;;
78169;SDS011;67412;49.892;14.490;2024-02-15T05:38:46;8.02;;;2.97;;
78169;SDS011;67412;49.892;14.490;2024-02-15T05:41:13;7.53;;;3.17;;
78169;SDS011;67412;49.892;14.490;2024-02-15T05:43:38;7.63;;;2.72;;
78169;SDS011;67412;49.892;14.490;2024-02-15T05:46:06;7.25;;;2.78;;
78169;SDS011;67412;49.892;14.490;2024-02-15T05:48:32;8.27;;;2.92;;
78169;SDS011;67412;49.892;14.490;2024-02-15T05:51:01;8.68;;;2.95;;
78169;SDS011;67412;49.892;14.490;2024-02-15T05:53:26;7.43;;;3.00;;
78169;SDS011;67412;49.892;14.490;2024-02-15T05:55:52;8.10;;;3.20;;
78169;SDS011;67412;49.892;14.490;2024-02-15T05:58:18;8.70;;;3.33;;
78169;SDS011;67412;49.892;14.490;2024-02-15T06:00:43;8.10;;;3.10;;
78169;SDS011;67412;49.892;14.490;2024-02-15T06:03:15;7.15;;;2.80;;
78169;SDS011;67412;49.892;14.490;2024-02-15T06:05:41;6.88;;;2.80;;
78169;SDS011;67412;49.892;14.490;2024-02-15T06:08:07;10.07;;;3.65;;
78169;SDS011;67412;49.892;14.490;2024-02-15T06:10:33;7.10;;;2.50;;
78169;SDS011;67412;49.892;14.490;2024-02-15T06:12:58;7.50;;;2.90;;
78169;SDS011;67412;49.892;14.490;2024-02-15T06:15:24;8.07;;;2.60;;
78169;SDS011;67412;49.892;14.490;2024-02-15T06:17:50;8.80;;;2.90;;
78169;SDS011;67412;49.892;14.490;2024-02-15T06:20:15;7.22;;;2.70;;
78169;SDS011;67412;49.892;14.490;2024-02-15T06:22:45;6.40;;;2.55;;
78169;SDS011;67412;49.892;14.490;2024-02-15T06:25:11;6.75;;;2.60;;
78169;SDS011;67412;49.892;14.490;2024-02-15T06:27:38;7.18;;;2.53;;
78169;SDS011;67412;49.892;14.490;2024-02-15T06:30:06;7.60;;;2.65;;
78169;SDS011;67412;49.892;14.490;2024-02-15T06:32:51;10.38;;;3.45;;
78169;SDS011;67412;49.892;14.490;2024-02-15T06:35:36;7.68;;;3.03;;
78169;SDS011;67412;49.892;14.490;2024-02-15T06:41:04;8.02;;;2.92;;
78169;SDS011;67412;49.892;14.490;2024-02-15T06:43:30;9.00;;;3.90;;
78169;SDS011;67412;49.892;14.490;2024-02-15T06:45:55;8.73;;;3.28;;
78169;SDS011;67412;49.892;14.490;2024-02-15T06:48:20;10.75;;;3.33;;
78169;SDS011;67412;49.892;14.490;2024-02-15T06:50:48;11.18;;;4.38;;
78169;SDS011;67412;49.892;14.490;2024-02-15T06:53:14;12.60;;;4.65;;
78169;SDS011;67412;49.892;14.490;2024-02-15T06:55:39;15.48;;;6.00;;
78169;SDS011;67412;49.892;14.490;2024-02-15T06:58:05;15.68;;;7.13;;
78169;SDS011;67412;49.892;14.490;2024-02-15T07:00:30;13.82;;;6.10;;
78169;SDS011;67412;49.892;14.490;2024-02-15T07:02:56;15.75;;;5.57;;
78169;SDS011;67412;49.892;14.490;2024-02-15T07:05:21;17.73;;;7.00;;
78169;SDS011;67412;49.892;14.490;2024-02-15T07:07:48;13.95;;;5.78;;
78169;SDS011;67412;49.892;14.490;2024-02-15T07:10:14;15.95;;;4.90;;
78169;SDS011;67412;49.892;14.490;2024-02-15T07:12:42;12.35;;;5.15;;
78169;SDS011;67412;49.892;14.490;2024-02-15T07:15:09;11.77;;;4.78;;
78169;SDS011;67412;49.892;14.490;2024-02-15T07:17:35;12.38;;;4.50;;
78169;SDS011;67412;49.892;14.490;2024-02-15T07:20:02;8.77;;;3.78;;
78169;SDS011;67412;49.892;14.490;2024-02-15T07:22:30;9.90;;;3.75;;
78169;SDS011;67412;49.892;14.490;2024-02-15T07:24:56;9.30;;;4.13;;
78169;SDS011;67412;49.892;14.490;2024-02-15T07:27:22;9.30;;;3.53;;
78169;SDS011;67412;49.892;14.490;2024-02-15T07:29:50;10.00;;;4.10;;
78169;SDS011;67412;49.892;14.490;2024-02-15T07:32:15;9.27;;;4.03;;
78169;SDS011;67412;49.892;14.490;2024-02-15T07:34:42;12.07;;;3.83;;
78169;SDS011;67412;49.892;14.490;2024-02-15T07:37:08;8.75;;;3.28;;
78169;SDS011;67412;49.892;14.490;2024-02-15T07:39:34;8.63;;;3.70;;
78169;SDS011;67412;49.892;14.490;2024-02-15T07:44:28;8.35;;;3.05;;
78169;SDS011;67412;49.892;14.490;2024-02-15T07:49:20;6.83;;;3.10;;
78169;SDS011;67412;49.892;14.490;2024-02-15T07:51:47;7.45;;;3.28;;
78169;SDS011;67412;49.892;14.490;2024-02-15T07:54:17;8.20;;;4.22;;
78169;SDS011;67412;49.892;14.490;2024-02-15T07:56:46;10.55;;;3.50;;
78169;SDS011;67412;49.892;14.490;2024-02-15T07:59:14;10.15;;;3.38;;
78169;SDS011;67412;49.892;14.490;2024-02-15T08:01:41;9.55;;;4.00;;
78169;SDS011;67412;49.892;14.490;2024-02-15T08:04:08;9.55;;;4.03;;
78169;SDS011;67412;49.892;14.490;2024-02-15T08:06:34;8.98;;;4.05;;
78169;SDS011;67412;49.892;14.490;2024-02-15T08:09:02;10.07;;;3.55;;
78169;SDS011;67412;49.892;14.490;2024-02-15T08:11:30;7.35;;;3.40;;
78169;SDS011;67412;49.892;14.490;2024-02-15T08:13:55;8.13;;;3.20;;
78169;SDS011;67412;49.892;14.490;2024-02-15T08:16:24;8.68;;;3.15;;
78169;SDS011;67412;49.892;14.490;2024-02-15T08:18:53;9.70;;;3.40;;
78169;SDS011;67412;49.892;14.490;2024-02-15T08:21:28;7.72;;;3.15;;
78169;SDS011;67412;49.892;14.490;2024-02-15T08:23:57;8.32;;;3.60;;
78169;SDS011;67412;49.892;14.490;2024-02-15T08:26:23;9.63;;;3.22;;
78169;SDS011;67412;49.892;14.490;2024-02-15T08:28:49;8.27;;;3.55;;
78169;SDS011;67412;49.892;14.490;2024-02-15T08:31:14;8.35;;;4.05;;
78169;SDS011;67412;49.892;14.490;2024-02-15T08:33:44;7.57;;;2.90;;
78169;SDS011;67412;49.892;14.490;2024-02-15T08:36:10;7.88;;;2.80;;
78169;SDS011;67412;49.892;14.490;2024-02-15T08:38:38;7.63;;;2.97;;
78169;SDS011;67412;49.892;14.490;2024-02-15T08:41:04;6.80;;;2.58;;
78169;SDS011;67412;49.892;14.490;2024-02-15T08:43:30;6.10;;;3.00;;
78169;SDS011;67412;49.892;14.490;2024-02-15T08:45:57;6.90;;;3.10;;
78169;SDS011;67412;49.892;14.490;2024-02-15T08:48:23;8.35;;;3.20;;
78169;SDS011;67412;49.892;14.490;2024-02-15T08:50:48;7.03;;;2.80;;
78169;SDS011;67412;49.892;14.490;2024-02-15T08:53:14;8.70;;;2.97;;
78169;SDS011;67412;49.892;14.490;2024-02-15T08:55:40;8.25;;;3.38;;
78169;SDS011;67412;49.892;14.490;2024-02-15T08:58:06;7.72;;;3.25;;
78169;SDS011;67412;49.892;14.490;2024-02-15T09:00:34;7.72;;;3.10;;
78169;SDS011;67412;49.892;14.490;2024-02-15T09:02:59;7.15;;;2.90;;
78169;SDS011;67412;49.892;14.490;2024-02-15T09:05:25;8.38;;;2.97;;
78169;SDS011;67412;49.892;14.490;2024-02-15T09:07:50;7.75;;;2.92;;
78169;SDS011;67412;49.892;14.490;2024-02-15T09:10:17;8.75;;;3.42;;
78169;SDS011;67412;49.892;14.490;2024-02-15T09:12:43;7.63;;;3.35;;
78169;SDS011;67412;49.892;14.490;2024-02-15T09:15:09;7.85;;;3.25;;
78169;SDS011;67412;49.892;14.490;2024-02-15T09:17:41;7.15;;;3.13;;
78169;SDS011;67412;49.892;14.490;2024-02-15T09:22:40;6.88;;;3.00;;
78169;SDS011;67412;49.892;14.490;2024-02-15T09:25:06;8.68;;;2.90;;
78169;SDS011;67412;49.892;14.490;2024-02-15T09:27:32;8.07;;;3.35;;
78169;SDS011;67412;49.892;14.490;2024-02-15T09:29:57;7.72;;;2.58;;
78169;SDS011;67412;49.892;14.490;2024-02-15T09:32:22;6.78;;;3.10;;
78169;SDS011;67412;49.892;14.490;2024-02-15T09:34:48;6.65;;;2.63;;
78169;SDS011;67412;49.892;14.490;2024-02-15T09:37:14;5.50;;;2.45;;
78169;SDS011;67412;49.892;14.490;2024-02-15T09:39:40;6.75;;;3.10;;
78169;SDS011;67412;49.892;14.490;2024-02-15T09:42:05;7.18;;;2.72;;
78169;SDS011;67412;49.892;14.490;2024-02-15T09:44:31;6.10;;;2.70;;
78169;SDS011;67412;49.892;14.490;2024-02-15T09:47:03;6.18;;;2.58;;
78169;SDS011;67412;49.892;14.490;2024-02-15T09:49:37;7.10;;;2.58;;
78169;SDS011;67412;49.892;14.490;2024-02-15T09:52:07;7.05;;;2.95;;
78169;SDS011;67412;49.892;14.490;2024-02-15T09:54:39;6.25;;;2.58;;
78169;SDS011;67412;49.892;14.490;2024-02-15T09:57:08;8.38;;;3.13;;
78169;SDS011;67412;49.892;14.490;2024-02-15T09:59:35;8.70;;;2.88;;
78169;SDS011;67412;49.892;14.490;2024-02-15T10:02:01;7.53;;;3.53;;
78169;SDS011;67412;49.892;14.490;2024-02-15T10:04:27;4.30;;;2.10;;
78169;SDS011;67412;49.892;14.490;2024-02-15T10:06:52;5.55;;;2.38;;
78169;SDS011;67412;49.892;14.490;2024-02-15T10:09:36;6.57;;;2.30;;
78169;SDS011;67412;49.892;14.490;2024-02-15T10:12:07;6.63;;;2.35;;
78169;SDS011;67412;49.892;14.490;2024-02-15T10:14:34;8.13;;;2.10;;
78169;SDS011;67412;49.892;14.490;2024-02-15T10:17:05;6.22;;;2.20;;
78169;SDS011;67412;49.892;14.490;2024-02-15T10:19:36;5.53;;;2.15;;
78169;SDS011;67412;49.892;14.490;2024-02-15T10:22:05;6.25;;;2.40;;
78169;SDS011;67412;49.892;14.490;2024-02-15T10:24:32;5.07;;;2.30;;
78169;SDS011;67412;49.892;14.490;2024-02-15T10:27:01;4.72;;;2.28;;
78169;SDS011;67412;49.892;14.490;2024-02-15T10:29:31;6.40;;;2.33;;
78169;SDS011;67412;49.892;14.490;2024-02-15T10:31:59;4.57;;;2.20;;
78169;SDS011;67412;49.892;14.490;2024-02-15T10:34:25;5.80;;;2.30;;
78169;SDS011;67412;49.892;14.490;2024-02-15T10:36:53;5.40;;;2.42;;
78169;SDS011;67412;49.892;14.490;2024-02-15T10:39:19;6.32;;;2.40;;
78169;SDS011;67412;49.892;14.490;2024-02-15T10:41:49;6.63;;;2.75;;
78169;SDS011;67412;49.892;14.490;2024-02-15T10:44:17;6.70;;;2.60;;
78169;SDS011;67412;49.892;14.490;2024-02-15T10:46:44;7.75;;;2.35;;
78169;SDS011;67412;49.892;14.490;2024-02-15T10:49:16;6.85;;;2.72;;
78169;SDS011;67412;49.892;14.490;2024-02-15T10:54:09;6.80;;;3.08;;
78169;SDS011;67412;49.892;14.490;2024-02-15T10:56:41;8.15;;;2.95;;
78169;SDS011;67412;49.892;14.490;2024-02-15T10:59:17;7.68;;;3.03;;
78169;SDS011;67412;49.892;14.490;2024-02-15T11:01:47;5.55;;;2.20;;
78169;SDS011;67412;49.892;14.490;2024-02-15T11:04:19;5.80;;;1.80;;
78169;SDS011;67412;49.892;14.490;2024-02-15T11:06:50;5.45;;;1.85;;
78169;SDS011;67412;49.892;14.490;2024-02-15T11:09:16;4.78;;;1.80;;
78169;SDS011;67412;49.892;14.490;2024-02-15T11:11:42;3.33;;;1.40;;
78169;SDS011;67412;49.892;14.490;2024-02-15T11:16:56;3.28;;;1.40;;
78169;SDS011;67412;49.892;14.490;2024-02-15T11:21:57;3.75;;;1.45;;
78169;SDS011;67412;49.892;14.490;2024-02-15T11:24:26;5.50;;;1.50;;
78169;SDS011;67412;49.892;14.490;2024-02-15T11:26:57;4.47;;;1.40;;
78169;SDS011;67412;49.892;14.490;2024-02-15T11:35:03;3.25;;;1.20;;
78169;SDS011;67412;49.892;14.490;2024-02-15T11:40:12;3.20;;;1.10;;
78169;SDS011;67412;49.892;14.490;2024-02-15T11:42:38;2.25;;;1.10;;
78169;SDS011;67412;49.892;14.490;2024-02-15T11:45:07;3.25;;;1.00;;
78169;SDS011;67412;49.892;14.490;2024-02-15T11:47:33;2.35;;;1.00;;
78169;SDS011;67412;49.892;14.490;2024-02-15T11:50:08;2.10;;;0.80;;
78169;SDS011;67412;49.892;14.490;2024-02-15T11:52:44;2.42;;;1.02;;
78169;SDS011;67412;49.892;14.490;2024-02-15T11:55:10;1.55;;;0.75;;
78169;SDS011;67412;49.892;14.490;2024-02-15T11:57:38;3.65;;;1.00;;
78169;SDS011;67412;49.892;14.490;2024-02-15T12:00:22;2.38;;;0.88;;
78169;SDS011;67412;49.892;14.490;2024-02-15T12:03:07;1.70;;;0.93;;
78169;SDS011;67412;49.892;14.490;2024-02-15T12:05:52;2.38;;;0.85;;
78169;SDS011;67412;49.892;14.490;2024-02-15T12:08:36;1.48;;;0.70;;
78169;SDS011;67412;49.892;14.490;2024-02-15T12:11:20;2.28;;;0.80;;
78169;SDS011;67412;49.892;14.490;2024-02-15T12:14:04;2.13;;;0.93;;
78169;SDS011;67412;49.892;14.490;2024-02-15T12:16:58;3.08;;;0.98;;
78169;SDS011;67412;49.892;14.490;2024-02-15T12:19:49;2.22;;;0.80;;
78169;SDS011;67412;49.892;14.490;2024-02-15T12:22:19;2.38;;;0.93;;
78169;SDS011;67412;49.892;14.490;2024-02-15T12:27:21;3.90;;;1.00;;
78169;SDS011;67412;49.892;14.490;2024-02-15T12:29:54;5.72;;;1.00;;
78169;SDS011;67412;49.892;14.490;2024-02-15T12:32:21;4.95;;;1.38;;
78169;SDS011;67412;49.892;14.490;2024-02-15T12:34:52;2.67;;;0.90;;
78169;SDS011;67412;49.892;14.490;2024-02-15T12:37:18;2.33;;;1.08;;
78169;SDS011;67412;49.892;14.490;2024-02-15T12:39:46;5.95;;;2.08;;
78169;SDS011;67412;49.892;14.490;2024-02-15T12:42:12;2.38;;;0.90;;
78169;SDS011;67412;49.892;14.490;2024-02-15T12:44:41;9.30;;;2.85;;
78169;SDS011;67412;49.892;14.490;2024-02-15T12:47:16;4.15;;;1.33;;
78169;SDS011;67412;49.892;14.490;2024-02-15T12:49:42;2.25;;;0.95;;
78169;SDS011;67412;49.892;14.490;2024-02-15T12:55:07;22.63;;;7.68;;
78169;SDS011;67412;49.892;14.490;2024-02-15T12:57:37;5.60;;;2.08;;
78169;SDS011;67412;49.892;14.490;2024-02-15T13:00:05;6.18;;;1.92;;
78169;SDS011;67412;49.892;14.490;2024-02-15T13:02:39;6.85;;;2.00;;
78169;SDS011;67412;49.892;14.490;2024-02-15T13:05:05;5.00;;;1.52;;
78169;SDS011;67412;49.892;14.490;2024-02-15T13:07:34;6.00;;;1.98;;
78169;SDS011;67412;49.892;14.490;2024-02-15T13:12:26;7.63;;;2.05;;
78169;SDS011;67412;49.892;14.490;2024-02-15T13:14:53;4.03;;;1.15;;
78169;SDS011;67412;49.892;14.490;2024-02-15T13:17:19;3.08;;;0.88;;
78169;SDS011;67412;49.892;14.490;2024-02-15T13:19:48;3.55;;;1.35;;
78169;SDS011;67412;49.892;14.490;2024-02-15T13:22:14;4.63;;;1.60;;
78169;SDS011;67412;49.892;14.490;2024-02-15T13:24:41;4.60;;;1.20;;
78169;SDS011;67412;49.892;14.490;2024-02-15T13:27:07;5.80;;;1.60;;
78169;SDS011;67412;49.892;14.490;2024-02-15T13:29:35;2.55;;;1.08;;
78169;SDS011;67412;49.892;14.490;2024-02-15T13:32:00;4.55;;;1.13;;
78169;SDS011;67412;49.892;14.490;2024-02-15T13:34:26;1.60;;;0.88;;
78169;SDS011;67412;49.892;14.490;2024-02-15T13:36:51;5.65;;;1.10;;
78169;SDS011;67412;49.892;14.490;2024-02-15T13:39:17;4.15;;;1.35;;
78169;SDS011;67412;49.892;14.490;2024-02-15T13:41:46;3.13;;;0.98;;
78169;SDS011;67412;49.892;14.490;2024-02-15T13:44:12;3.50;;;1.20;;
78169;SDS011;67412;49.892;14.490;2024-02-15T13:46:39;2.17;;;1.00;;
78169;SDS011;67412;49.892;14.490;2024-02-15T13:49:05;2.50;;;0.80;;
78169;SDS011;67412;49.892;14.490;2024-02-15T13:51:30;3.20;;;1.10;;
78169;SDS011;67412;49.892;14.490;2024-02-15T13:53:56;2.40;;;0.90;;
78169;SDS011;67412;49.892;14.490;2024-02-15T13:56:21;4.10;;;0.80;;
78169;SDS011;67412;49.892;14.490;2024-02-15T13:58:47;3.95;;;1.15;;
78169;SDS011;67412;49.892;14.490;2024-02-15T14:01:12;3.20;;;0.95;;
78169;SDS011;67412;49.892;14.490;2024-02-15T14:03:39;2.65;;;0.77;;
78169;SDS011;67412;49.892;14.490;2024-02-15T14:06:06;2.53;;;0.88;;
78169;SDS011;67412;49.892;14.490;2024-02-15T14:08:31;3.30;;;1.10;;
78169;SDS011;67412;49.892;14.490;2024-02-15T14:10:57;3.75;;;1.00;;
78169;SDS011;67412;49.892;14.490;2024-02-15T14:13:22;3.63;;;1.08;;
78169;SDS011;67412;49.892;14.490;2024-02-15T14:15:48;3.10;;;1.05;;
78169;SDS011;67412;49.892;14.490;2024-02-15T14:18:13;3.83;;;1.10;;
78169;SDS011;67412;49.892;14.490;2024-02-15T14:20:39;2.83;;;1.13;;
78169;SDS011;67412;49.892;14.490;2024-02-15T14:23:07;3.95;;;1.20;;
78169;SDS011;67412;49.892;14.490;2024-02-15T14:25:38;3.47;;;0.98;;
78169;SDS011;67412;49.892;14.490;2024-02-15T14:28:04;3.90;;;1.20;;
78169;SDS011;67412;49.892;14.490;2024-02-15T14:30:33;2.85;;;1.20;;
78169;SDS011;67412;49.892;14.490;2024-02-15T14:33:20;3.63;;;0.93;;
78169;SDS011;67412;49.892;14.490;2024-02-15T14:35:47;1.58;;;0.80;;
78169;SDS011;67412;49.892;14.490;2024-02-15T14:38:14;2.88;;;1.02;;
78169;SDS011;67412;49.892;14.490;2024-02-15T14:40:42;3.85;;;1.10;;
78169;SDS011;67412;49.892;14.490;2024-02-15T14:43:20;2.00;;;0.93;;
78169;SDS011;67412;49.892;14.490;2024-02-15T14:45:46;2.75;;;1.20;;
78169;SDS011;67412;49.892;14.490;2024-02-15T14:48:13;2.40;;;0.95;;
78169;SDS011;67412;49.892;14.490;2024-02-15T14:50:39;3.72;;;1.08;;
78169;SDS011;67412;49.892;14.490;2024-02-15T14:53:05;2.60;;;0.90;;
78169;SDS011;67412;49.892;14.490;2024-02-15T14:55:33;3.42;;;1.30;;
78169;SDS011;67412;49.892;14.490;2024-02-15T14:58:04;4.70;;;1.30;;
78169;SDS011;67412;49.892;14.490;2024-02-15T15:00:32;3.35;;;1.17;;
78169;SDS011;67412;49.892;14.490;2024-02-15T15:02:58;3.90;;;1.20;;
78169;SDS011;67412;49.892;14.490;2024-02-15T15:05:23;4.25;;;1.25;;
78169;SDS011;67412;49.892;14.490;2024-02-15T15:08:07;4.25;;;1.10;;
78169;SDS011;67412;49.892;14.490;2024-02-15T15:10:51;2.90;;;1.08;;
78169;SDS011;67412;49.892;14.490;2024-02-15T15:13:36;4.05;;;1.58;;
78169;SDS011;67412;49.892;14.490;2024-02-15T15:16:02;3.92;;;1.45;;